Time;durP1;ratioP1;P1;durP2;ratioP2;P2;SDS_P1;SDS_P2;PMS_P1;PMS_P2;Temp;Humidity;BMP_temperature;BMP_pressure;BME280_temperature;BME280_humidity;BME280_pressure;Samples;Min_cycle;Max_cycle;Signal;HPM_P1;HPM_P2
2023/08/22 00:01:18;;;;;;;11.77;8.18;;;;;;;-146.82;100.00;71671.09;5072401;28;20188;-77
2023/08/22 00:03:49;;;;;;;10.18;8.30;;;;;;;-146.82;100.00;71671.09;5072344;28;20066;-77
2023/08/22 00:06:16;;;;;;;15.30;7.28;;;;;;;-146.82;100.00;71671.09;5087651;28;20059;-78
2023/08/22 00:08:42;;;;;;;9.68;6.75;;;;;;;-146.82;100.00;71671.09;5072508;28;20359;-77
2023/08/22 00:11:07;;;;;;;12.00;7.32;;;;;;;-146.82;100.00;71671.09;5087875;28;20030;-78
2023/08/22 00:13:33;;;;;;;10.13;7.78;;;;;;;-146.82;100.00;71671.09;5071982;28;20032;-78
2023/08/22 00:16:03;;;;;;;12.65;7.55;;;;;;;-146.82;100.00;71671.09;5073226;28;20025;-79
2023/08/22 00:18:30;;;;;;;10.63;7.70;;;;;;;-146.82;100.00;71671.09;5089021;28;20038;-80
2023/08/22 00:20:55;;;;;;;11.95;8.45;;;;;;;-146.82;100.00;71671.09;5073513;28;20032;-77
2023/08/22 00:23:21;;;;;;;9.05;7.28;;;;;;;-146.82;100.00;71671.09;5073218;28;20025;-78
2023/08/22 00:25:55;;;;;;;10.40;7.47;;;;;;;-146.82;100.00;71671.09;5073249;28;20112;-80
2023/08/22 00:28:20;;;;;;;9.38;7.90;;;;;;;-146.82;100.00;71671.09;5073398;28;20103;-78
2023/08/22 00:30:47;;;;;;;11.10;7.63;;;;;;;-146.82;100.00;71671.09;5088644;28;20488;-79
2023/08/22 00:33:13;;;;;;;16.38;8.32;;;;;;;-146.82;100.00;71671.09;5073218;28;20374;-79
2023/08/22 00:35:38;;;;;;;9.18;7.45;;;;;;;-146.82;100.00;71671.09;5073231;28;20032;-79
2023/08/22 00:38:05;;;;;;;12.65;7.85;;;;;;;-146.82;100.00;71671.09;5071753;28;20492;-79
2023/08/22 00:40:31;;;;;;;12.05;7.57;;;;;;;-146.82;100.00;71671.09;5072697;28;20077;-79
2023/08/22 00:42:57;;;;;;;11.13;7.07;;;;;;;-146.82;100.00;71671.09;5073308;28;20032;-78
2023/08/22 00:45:24;;;;;;;10.70;7.03;;;;;;;-146.82;100.00;71671.09;5073368;28;20032;-76
2023/08/22 00:47:51;;;;;;;11.90;7.63;;;;;;;-146.82;100.00;71671.09;5073006;28;20027;-78
2023/08/22 00:50:18;;;;;;;12.55;7.70;;;;;;;-146.82;100.00;71671.09;5073134;28;20070;-77
2023/08/22 00:52:45;;;;;;;10.82;7.40;;;;;;;-146.82;100.00;71671.09;5072910;28;20024;-77
2023/08/22 00:55:11;;;;;;;12.45;7.40;;;;;;;-146.82;100.00;71671.09;5071571;28;20094;-78
2023/08/22 00:57:41;;;;;;;12.50;8.15;;;;;;;-146.82;100.00;71671.09;5088452;28;20094;-80
2023/08/22 01:00:10;;;;;;;10.32;7.20;;;;;;;-146.82;100.00;71671.09;5074100;28;20028;-77
2023/08/22 01:02:45;;;;;;;12.75;7.40;;;;;;;-146.82;100.00;71671.09;5076857;28;20033;-78
2023/08/22 01:05:12;;;;;;;15.40;7.53;;;;;;;-146.82;100.00;71671.09;5076451;28;20116;-80
2023/08/22 01:07:51;;;;;;;12.20;7.45;;;;;;;-146.82;100.00;71671.09;5077358;28;20059;-80
2023/08/22 01:11:00;;;;;;;10.40;7.50;;;;;;;-146.82;100.00;71671.09;5080434;28;20024;-79
2023/08/22 01:13:47;;;;;;;10.75;7.40;;;;;;;-146.82;100.00;71671.09;5079871;28;20121;-80
2023/08/22 01:16:17;;;;;;;13.10;7.75;;;;;;;-146.82;100.00;71671.09;5077404;28;20103;-78
2023/08/22 01:18:42;;;;;;;13.98;8.60;;;;;;;-146.82;100.00;71671.09;5077048;28;20040;-78
2023/08/22 01:21:19;;;;;;;13.13;8.30;;;;;;;-146.82;100.00;71671.09;5076951;28;20024;-77
2023/08/22 01:23:45;;;;;;;14.43;7.90;;;;;;;-146.82;100.00;71671.09;5089979;28;20444;-78
2023/08/22 01:26:13;;;;;;;10.88;8.15;;;;;;;-146.82;100.00;71671.09;5073667;28;20450;-77
2023/08/22 01:28:50;;;;;;;11.15;7.95;;;;;;;-146.82;100.00;71671.09;5055625;28;20028;-77
2023/08/22 01:31:54;;;;;;;9.90;7.70;;;;;;;-146.82;100.00;71671.09;5072626;28;20354;-77
2023/08/22 01:34:23;;;;;;;10.43;7.03;;;;;;;-146.82;100.00;71671.09;5074087;28;20052;-77
2023/08/22 01:36:52;;;;;;;15.55;7.45;;;;;;;-146.82;100.00;71671.09;5089694;28;20107;-77
2023/08/22 01:39:18;;;;;;;10.57;7.68;;;;;;;-146.82;100.00;71671.09;5072926;28;20036;-76
2023/08/22 01:41:54;;;;;;;13.70;7.70;;;;;;;-146.82;100.00;71671.09;5090457;28;20036;-77
2023/08/22 01:44:37;;;;;;;13.77;7.45;;;;;;;-146.82;100.00;71671.09;5074522;28;20535;-77
2023/08/22 01:47:05;;;;;;;11.25;7.80;;;;;;;-146.82;100.00;71671.09;5073666;28;20039;-79
2023/08/22 01:49:37;;;;;;;11.48;7.28;;;;;;;-146.82;100.00;71671.09;5074248;28;20028;-78
2023/08/22 01:52:09;;;;;;;9.43;7.68;;;;;;;-146.82;100.00;71671.09;5074574;28;20016;-77
2023/08/22 01:54:48;;;;;;;11.57;8.23;;;;;;;-146.82;100.00;71671.09;5072836;28;20050;-77
2023/08/22 01:57:15;;;;;;;10.77;7.55;;;;;;;-146.82;100.00;71671.09;5074438;28;20024;-78
2023/08/22 01:59:40;;;;;;;14.05;7.70;;;;;;;-146.82;100.00;71671.09;5074358;28;20495;-78
2023/08/22 02:02:07;;;;;;;9.43;6.97;;;;;;;-146.82;100.00;71671.09;5074730;28;20056;-77
2023/08/22 02:04:33;;;;;;;12.65;7.85;;;;;;;-146.82;100.00;71671.09;5075065;28;20048;-76
2023/08/22 02:07:00;;;;;;;12.30;8.75;;;;;;;-146.82;100.00;71671.09;5075384;28;20028;-77
2023/08/22 02:09:26;;;;;;;14.48;8.30;;;;;;;-146.82;100.00;71671.09;5074577;28;20033;-78
2023/08/22 02:11:52;;;;;;;13.13;7.57;;;;;;;-146.82;100.00;71671.09;5075025;28;20035;-78
2023/08/22 02:14:17;;;;;;;13.90;8.70;;;;;;;-146.82;100.00;71671.09;5090509;28;20029;-78
2023/08/22 02:16:43;;;;;;;13.55;7.47;;;;;;;-146.82;100.00;71671.09;5090591;28;20054;-78
2023/08/22 02:19:08;;;;;;;12.88;7.25;;;;;;;-146.82;100.00;71671.09;5075067;28;20021;-77
2023/08/22 02:21:35;;;;;;;14.25;7.80;;;;;;;-146.82;100.00;71671.09;5074880;28;20028;-78
2023/08/22 02:24:02;;;;;;;10.90;8.15;;;;;;;-146.82;100.00;71671.09;5073781;28;20028;-79
2023/08/22 02:26:30;;;;;;;17.02;8.73;;;;;;;-146.82;100.00;71671.09;5074837;28;20031;-78
2023/08/22 02:28:57;;;;;;;10.52;8.18;;;;;;;-146.82;100.00;71671.09;5074619;28;20017;-77
2023/08/22 02:31:22;;;;;;;11.60;7.55;;;;;;;-146.82;100.00;71671.09;5068362;28;20040;-77
2023/08/22 02:33:47;;;;;;;15.25;8.75;;;;;;;-146.82;100.00;71671.09;5073321;28;20023;-77
2023/08/22 02:36:16;;;;;;;12.52;9.43;;;;;;;-146.82;100.00;71671.09;5074505;28;20385;-77
2023/08/22 02:38:41;;;;;;;12.60;8.63;;;;;;;-146.82;100.00;71671.09;5074700;28;20421;-77
2023/08/22 02:41:07;;;;;;;12.30;8.38;;;;;;;-146.82;100.00;71671.09;5074480;28;20068;-77
2023/08/22 02:43:32;;;;;;;11.70;8.40;;;;;;;-146.82;100.00;71671.09;5086852;28;20135;-79
2023/08/22 02:45:57;;;;;;;14.20;9.30;;;;;;;-146.82;100.00;71671.09;5074458;28;20470;-78
2023/08/22 02:48:23;;;;;;;14.40;9.38;;;;;;;-146.82;100.00;71671.09;5056418;28;20481;-77
2023/08/22 02:50:50;;;;;;;14.43;8.73;;;;;;;-146.82;100.00;71671.09;5074321;28;20119;-77
2023/08/22 02:53:16;;;;;;;11.55;8.77;;;;;;;-146.82;100.00;71671.09;5069495;28;20354;-77
2023/08/22 02:55:47;;;;;;;15.10;9.15;;;;;;;-146.82;100.00;71671.09;5072244;28;20049;-78
2023/08/22 02:58:33;;;;;;;12.23;9.07;;;;;;;-146.82;100.00;71671.09;5074334;28;20032;-78
2023/08/22 03:00:58;;;;;;;13.23;9.73;;;;;;;-146.82;100.00;71671.09;5072837;28;20028;-77
2023/08/22 03:03:25;;;;;;;13.63;10.55;;;;;;;-146.82;100.00;71671.09;5089620;28;20385;-77
2023/08/22 03:05:51;;;;;;;12.63;10.05;;;;;;;-146.82;100.00;71671.09;5073914;28;20052;-77
2023/08/22 03:08:20;;;;;;;11.15;9.75;;;;;;;-146.82;100.00;71671.09;5072979;28;20048;-78
2023/08/22 03:10:45;;;;;;;14.98;11.57;;;;;;;-146.82;100.00;71671.09;5074060;28;20116;-78
2023/08/22 03:13:15;;;;;;;17.13;12.27;;;;;;;-146.82;100.00;71671.09;5073899;28;20446;-77
2023/08/22 03:15:40;;;;;;;17.60;10.55;;;;;;;-146.82;100.00;71671.09;5073871;28;20409;-77
2023/08/22 03:18:09;;;;;;;20.35;9.60;;;;;;;-146.82;100.00;71671.09;5074064;28;20028;-77
2023/08/22 03:20:34;;;;;;;14.13;9.18;;;;;;;-146.82;100.00;71671.09;5073911;28;20021;-79
2023/08/22 03:23:00;;;;;;;14.30;11.07;;;;;;;-146.82;100.00;71671.09;5071685;28;20024;-77
2023/08/22 03:25:26;;;;;;;15.82;9.95;;;;;;;-146.82;100.00;71671.09;5073905;28;20044;-77
2023/08/22 03:28:00;;;;;;;14.52;9.73;;;;;;;-146.82;100.00;71671.09;5073611;28;20500;-77
2023/08/22 03:30:26;;;;;;;15.20;9.27;;;;;;;-146.82;100.00;71671.09;5072266;28;20024;-76
2023/08/22 03:32:53;;;;;;;17.45;9.73;;;;;;;-146.82;100.00;71671.09;5072618;28;20072;-78
2023/08/22 03:35:22;;;;;;;15.23;10.13;;;;;;;-146.82;100.00;71671.09;5073507;28;20496;-77
2023/08/22 03:37:47;;;;;;;14.15;10.13;;;;;;;-146.82;100.00;71671.09;5073419;28;20029;-76
2023/08/22 03:40:13;;;;;;;14.88;10.52;;;;;;;-146.82;100.00;71671.09;5073471;28;20523;-77
2023/08/22 03:42:40;;;;;;;15.02;11.27;;;;;;;-146.82;100.00;71671.09;5072044;28;20565;-78
2023/08/22 03:45:10;;;;;;;15.55;11.75;;;;;;;-146.82;100.00;71671.09;5073494;28;20051;-79
2023/08/22 03:47:35;;;;;;;15.18;11.23;;;;;;;-146.82;100.00;71671.09;5073330;28;20033;-78
2023/08/22 03:50:03;;;;;;;14.55;11.88;;;;;;;-146.82;100.00;71671.09;5071069;28;20040;-79
2023/08/22 03:52:44;;;;;;;17.40;12.25;;;;;;;-146.82;100.00;71671.09;5073524;28;20025;-79
2023/08/22 03:55:09;;;;;;;18.42;12.68;;;;;;;-146.82;100.00;71671.09;5073342;28;20040;-78
2023/08/22 03:57:35;;;;;;;18.75;12.95;;;;;;;-146.82;100.00;71671.09;5073319;28;20033;-76
2023/08/22 04:00:01;;;;;;;16.13;12.95;;;;;;;-146.82;100.00;71671.09;5073282;28;20119;-77
2023/08/22 04:02:31;;;;;;;18.05;12.82;;;;;;;-146.82;100.00;71671.09;5073149;28;20126;-78
2023/08/22 04:04:56;;;;;;;20.38;14.10;;;;;;;-146.82;100.00;71671.09;5073255;28;20071;-78
2023/08/22 04:07:23;;;;;;;18.40;13.70;;;;;;;-146.82;100.00;71671.09;5073182;28;20481;-78
2023/08/22 04:09:48;;;;;;;19.67;13.60;;;;;;;-146.82;100.00;71671.09;5073318;28;20032;-78
2023/08/22 04:12:15;;;;;;;17.73;13.00;;;;;;;-146.82;100.00;71671.09;5073237;28;20017;-78
2023/08/22 04:14:41;;;;;;;21.45;13.75;;;;;;;-146.82;100.00;71671.09;5072987;28;20052;-78
2023/08/22 04:17:08;;;;;;;17.85;13.25;;;;;;;-146.82;100.00;71671.09;5072676;28;20055;-78
2023/08/22 04:19:33;;;;;;;17.23;12.40;;;;;;;-146.82;100.00;71671.09;5072595;28;20355;-77
2023/08/22 04:22:00;;;;;;;14.98;12.88;;;;;;;-146.82;100.00;71671.09;5073213;28;20095;-76
2023/08/22 04:24:25;;;;;;;19.23;13.73;;;;;;;-146.82;100.00;71671.09;5073231;28;20051;-78
2023/08/22 04:26:51;;;;;;;18.50;13.55;;;;;;;-146.82;100.00;71671.09;5071737;28;20025;-78
2023/08/22 04:29:17;;;;;;;18.33;13.65;;;;;;;-146.82;100.00;71671.09;5073122;28;20024;-77
2023/08/22 04:31:43;;;;;;;16.35;12.88;;;;;;;-146.82;100.00;71671.09;5073065;28;20033;-76
2023/08/22 04:34:08;;;;;;;17.13;12.25;;;;;;;-146.82;100.00;71671.09;5091278;28;20032;-77
2023/08/22 04:36:35;;;;;;;19.90;13.00;;;;;;;-146.82;100.00;71671.09;5076850;28;20046;-79
2023/08/22 04:39:00;;;;;;;18.40;12.88;;;;;;;-146.82;100.00;71671.09;5075650;28;20028;-77
2023/08/22 04:41:27;;;;;;;18.90;12.73;;;;;;;-146.82;100.00;71671.09;5076712;28;20520;-77
2023/08/22 04:43:53;;;;;;;15.40;13.02;;;;;;;-146.82;100.00;71671.09;5075308;28;20082;-78
2023/08/22 04:46:18;;;;;;;16.55;12.25;;;;;;;-146.82;100.00;71671.09;5076611;28;20104;-78
2023/08/22 04:48:44;;;;;;;18.55;12.73;;;;;;;-146.82;100.00;71671.09;5076742;28;20017;-77
2023/08/22 04:51:09;;;;;;;21.67;13.52;;;;;;;-146.82;100.00;71671.09;5076331;28;20039;-77
2023/08/22 04:53:36;;;;;;;18.48;12.93;;;;;;;-146.82;100.00;71671.09;5076517;28;20020;-78
2023/08/22 04:56:01;;;;;;;14.57;11.90;;;;;;;-146.82;100.00;71671.09;5075815;28;20082;-78
2023/08/22 04:58:29;;;;;;;14.75;12.38;;;;;;;-146.82;100.00;71671.09;5076094;28;20044;-76
2023/08/22 05:00:54;;;;;;;15.98;13.05;;;;;;;-146.82;100.00;71671.09;5074918;28;20082;-77
2023/08/22 05:03:21;;;;;;;17.65;12.13;;;;;;;-146.82;100.00;71671.09;5092180;28;20424;-77
2023/08/22 05:05:47;;;;;;;20.65;13.77;;;;;;;-146.82;100.00;71671.09;5075565;28;20388;-77
2023/08/22 05:08:13;;;;;;;16.63;12.70;;;;;;;-146.82;100.00;71671.09;5078358;28;20051;-76
2023/08/22 05:10:39;;;;;;;14.65;11.52;;;;;;;-146.82;100.00;71671.09;5096490;28;20024;-75
2023/08/22 05:13:06;;;;;;;17.17;12.85;;;;;;;-146.82;100.00;71671.09;5096315;28;20107;-76
2023/08/22 05:15:31;;;;;;;16.13;11.98;;;;;;;-146.82;100.00;71671.09;5096240;28;20419;-77
2023/08/22 05:17:56;;;;;;;17.48;12.25;;;;;;;-146.82;100.00;71671.09;5096968;28;20057;-79
2023/08/22 05:20:22;;;;;;;14.23;11.82;;;;;;;-146.82;100.00;71671.09;5098315;28;20453;-74
2023/08/22 05:22:51;;;;;;;17.25;11.15;;;;;;;-146.82;100.00;71671.09;5099706;28;20039;-77
2023/08/22 05:25:19;;;;;;;15.18;11.50;;;;;;;-146.82;100.00;71671.09;5114696;28;20020;-78
2023/08/22 05:27:45;;;;;;;14.68;12.30;;;;;;;-146.82;100.00;71671.09;5095205;28;20024;-76
2023/08/22 05:30:13;;;;;;;15.27;10.82;;;;;;;-146.82;100.00;71671.09;5096214;28;20032;-76
2023/08/22 05:32:40;;;;;;;18.38;11.98;;;;;;;-146.82;100.00;71671.09;5096795;28;20473;-75
2023/08/22 05:35:06;;;;;;;12.90;11.00;;;;;;;-146.82;100.00;71671.09;5096561;28;20065;-75
2023/08/22 05:37:32;;;;;;;18.42;11.75;;;;;;;-146.82;100.00;71671.09;5096409;28;20024;-74
2023/08/22 05:39:58;;;;;;;14.15;11.38;;;;;;;-146.82;100.00;71671.09;5096596;28;20362;-75
2023/08/22 05:42:25;;;;;;;15.55;11.15;;;;;;;-146.82;100.00;71671.09;5096147;28;20028;-75
2023/08/22 05:44:52;;;;;;;16.55;12.27;;;;;;;-146.82;100.00;71671.09;5094224;28;20028;-75
2023/08/22 05:47:19;;;;;;;18.67;12.63;;;;;;;-146.82;100.00;71671.09;5096169;28;20019;-75
2023/08/22 05:49:45;;;;;;;15.50;11.25;;;;;;;-146.82;100.00;71671.09;5097255;28;20127;-74
2023/08/22 05:52:13;;;;;;;17.35;10.88;;;;;;;-146.82;100.00;71671.09;5093617;28;20461;-74
2023/08/22 05:54:40;;;;;;;16.95;10.93;;;;;;;-146.82;100.00;71671.09;5095121;28;20016;-74
2023/08/22 05:57:07;;;;;;;21.73;12.77;;;;;;;-146.82;100.00;71671.09;5093613;28;20077;-74
2023/08/22 05:59:35;;;;;;;18.00;11.55;;;;;;;-146.82;100.00;71671.09;5110560;28;20032;-74
2023/08/22 06:02:08;;;;;;;17.13;10.80;;;;;;;-146.82;100.00;71671.09;5094678;28;20040;-76
2023/08/22 06:04:33;;;;;;;14.20;10.52;;;;;;;-146.82;100.00;71671.09;5092930;28;20051;-75
2023/08/22 06:07:00;;;;;;;12.52;9.60;;;;;;;-146.82;100.00;71671.09;5095260;28;20024;-76
2023/08/22 06:09:27;;;;;;;14.60;10.10;;;;;;;-146.82;100.00;71671.09;5094834;28;20153;-75
2023/08/22 06:11:52;;;;;;;16.95;10.57;;;;;;;-146.82;100.00;71671.09;5093945;28;20024;-75
2023/08/22 06:14:18;;;;;;;21.63;10.60;;;;;;;-146.82;100.00;71671.09;5109604;28;20039;-75
2023/08/22 06:16:45;;;;;;;14.18;10.25;;;;;;;-146.82;100.00;71671.09;5093733;28;20028;-74
2023/08/22 06:19:12;;;;;;;11.95;10.13;;;;;;;-146.82;100.00;71671.09;5094425;28;20058;-75
2023/08/22 06:21:39;;;;;;;14.68;9.85;;;;;;;-146.82;100.00;71671.09;5095286;28;20024;-76
2023/08/22 06:24:06;;;;;;;12.85;10.80;;;;;;;-146.82;100.00;71671.09;5095126;28;20042;-76
2023/08/22 06:26:33;;;;;;;19.70;11.85;;;;;;;-146.82;100.00;71671.09;5094827;28;20495;-75
2023/08/22 06:28:58;;;;;;;12.73;10.00;;;;;;;-146.82;100.00;71671.09;5091404;28;20075;-74
2023/08/22 06:31:24;;;;;;;16.45;10.27;;;;;;;-146.82;100.00;71671.09;5084818;28;20060;-74
2023/08/22 06:33:50;;;;;;;17.23;9.48;;;;;;;-146.82;100.00;71671.09;5086582;28;20023;-74
2023/08/22 06:36:16;;;;;;;16.92;10.48;;;;;;;-146.82;100.00;71671.09;5086146;28;20036;-75
2023/08/22 06:38:47;;;;;;;13.20;9.35;;;;;;;-146.82;100.00;71671.09;5094240;28;20023;-75
2023/08/22 06:41:16;;;;;;;13.23;8.80;;;;;;;-146.82;100.00;71671.09;5081424;28;20040;-76
2023/08/22 06:43:43;;;;;;;16.67;7.97;;;;;;;-146.82;100.00;71671.09;5081825;28;20039;-75
2023/08/22 06:46:21;;;;;;;11.55;7.85;;;;;;;-146.82;100.00;71671.09;5096254;28;20126;-76
2023/08/22 06:48:48;;;;;;;12.52;7.65;;;;;;;-146.82;100.00;71671.09;5109889;28;20089;-75
2023/08/22 06:51:20;;;;;;;11.73;7.35;;;;;;;-146.82;100.00;71671.09;5091624;28;20115;-74
2023/08/22 06:53:46;;;;;;;10.85;7.72;;;;;;;-146.82;100.00;71671.09;5094313;28;20016;-75
2023/08/22 06:56:13;;;;;;;8.73;7.10;;;;;;;-146.82;100.00;71671.09;5093439;28;20063;-76
2023/08/22 06:58:39;;;;;;;9.13;6.93;;;;;;;-146.82;100.00;71671.09;5092069;28;20028;-76
2023/08/22 07:01:09;;;;;;;7.20;6.25;;;;;;;-146.82;100.00;71671.09;5094141;28;20032;-75
2023/08/22 07:03:35;;;;;;;8.73;6.80;;;;;;;-146.82;100.00;71671.09;5109897;28;20481;-76
2023/08/22 07:06:02;;;;;;;12.73;5.90;;;;;;;-146.82;100.00;71671.09;5092315;28;20052;-75
2023/08/22 07:08:27;;;;;;;12.20;6.45;;;;;;;-146.82;100.00;71671.09;5094223;28;20051;-77
2023/08/22 07:11:02;;;;;;;12.77;5.85;;;;;;;-146.82;100.00;71671.09;5093877;28;20059;-78
2023/08/22 07:13:29;;;;;;;9.07;5.35;;;;;;;-146.82;100.00;71671.09;5093504;28;20536;-77
2023/08/22 07:15:55;;;;;;;7.88;5.90;;;;;;;-146.82;100.00;71671.09;5075782;28;20492;-77
2023/08/22 07:18:21;;;;;;;8.88;5.80;;;;;;;-146.82;100.00;71671.09;5071991;28;20068;-76
2023/08/22 07:20:51;;;;;;;9.90;5.90;;;;;;;-146.82;100.00;71671.09;5073703;28;20126;-76
2023/08/22 07:23:19;;;;;;;8.60;6.07;;;;;;;-146.82;100.00;71671.09;5073319;28;20523;-77
2023/08/22 07:25:56;;;;;;;13.65;6.63;;;;;;;-146.82;100.00;71671.09;5072163;28;20044;-76
2023/08/22 07:28:35;;;;;;;10.90;6.13;;;;;;;-146.82;100.00;71671.09;5073165;28;20051;-78
2023/08/22 07:31:12;;;;;;;17.67;6.72;;;;;;;-146.82;100.00;71671.09;5073107;28;20032;-76
2023/08/22 07:33:38;;;;;;;20.42;5.45;;;;;;;-146.82;100.00;71671.09;5071975;28;20024;-75
2023/08/22 07:36:04;;;;;;;19.30;6.47;;;;;;;-146.82;100.00;71671.09;5072937;28;20532;-77
2023/08/22 07:38:31;;;;;;;21.75;7.70;;;;;;;-146.82;100.00;71671.09;5062231;28;20279;-75
2023/08/22 07:40:56;;;;;;;6.32;5.45;;;;;;;-146.82;100.00;71671.09;5052114;28;20044;-79
2023/08/22 07:43:21;;;;;;;8.02;5.43;;;;;;;-146.82;100.00;71671.09;5051614;28;20028;-77
2023/08/22 07:45:48;;;;;;;12.27;6.03;;;;;;;-146.82;100.00;71671.09;5052404;28;20052;-79
2023/08/22 07:48:22;;;;;;;6.22;5.53;;;;;;;-146.82;100.00;71671.09;5050703;28;20556;-79
2023/08/22 07:50:58;;;;;;;9.77;5.13;;;;;;;-146.82;100.00;71671.09;5049724;28;20060;-78
2023/08/22 07:53:31;;;;;;;9.75;5.80;;;;;;;-146.82;100.00;71671.09;5034258;28;20032;-80
2023/08/22 07:55:59;;;;;;;7.88;5.28;;;;;;;-146.82;100.00;71671.09;5050456;28;20090;-78
2023/08/22 07:58:25;;;;;;;7.57;5.32;;;;;;;-146.82;100.00;71671.09;5067231;28;20031;-78
2023/08/22 08:00:53;;;;;;;6.70;5.40;;;;;;;-146.82;100.00;71671.09;5080378;28;20089;-79
2023/08/22 08:03:18;;;;;;;9.93;5.00;;;;;;;-146.82;100.00;71671.09;5080193;28;20024;-76
2023/08/22 08:05:44;;;;;;;8.53;5.63;;;;;;;-146.82;100.00;71671.09;5079752;28;20481;-77
2023/08/22 08:08:10;;;;;;;10.32;5.15;;;;;;;-146.82;100.00;71671.09;5085940;28;20680;-77
2023/08/22 08:10:44;;;;;;;10.10;5.35;;;;;;;-146.82;100.00;71671.09;5088871;28;20038;-79
2023/08/22 08:13:09;;;;;;;22.40;7.43;;;;;;;-146.82;100.00;71671.09;5080297;28;20016;-79
2023/08/22 08:15:36;;;;;;;16.20;6.80;;;;;;;-146.82;100.00;71671.09;5109648;28;20082;-79
2023/08/22 08:18:03;;;;;;;8.15;5.55;;;;;;;-146.82;100.00;71671.09;5077675;28;20079;-79
2023/08/22 08:20:29;;;;;;;8.13;5.75;;;;;;;-146.82;100.00;71671.09;5095490;28;20557;-78
2023/08/22 08:22:56;;;;;;;5.68;5.07;;;;;;;-146.82;100.00;71671.09;5077610;28;20045;-76
2023/08/22 08:25:21;;;;;;;7.50;4.97;;;;;;;-146.82;100.00;71671.09;5078061;28;20089;-76
2023/08/22 08:27:49;;;;;;;15.10;6.28;;;;;;;-146.82;100.00;71671.09;5079399;28;20485;-76
2023/08/22 08:30:23;;;;;;;7.50;5.22;;;;;;;-146.82;100.00;71671.09;5077351;28;20397;-77
2023/08/22 08:32:50;;;;;;;8.43;5.00;;;;;;;-146.82;100.00;71671.09;5077969;28;20020;-78
2023/08/22 08:35:16;;;;;;;9.57;5.00;;;;;;;-146.82;100.00;71671.09;5076970;28;20037;-79
2023/08/22 08:37:46;;;;;;;12.55;4.95;;;;;;;-146.82;100.00;71671.09;5076704;28;20052;-75
2023/08/22 08:40:14;;;;;;;10.27;5.30;;;;;;;-146.82;100.00;71671.09;5076803;28;20043;-75
2023/08/22 08:42:49;;;;;;;20.23;6.38;;;;;;;-146.82;100.00;71671.09;5093199;28;20028;-77
2023/08/22 08:45:16;;;;;;;10.65;5.18;;;;;;;-146.82;100.00;71671.09;5092142;28;20052;-80
2023/08/22 08:47:42;;;;;;;7.68;5.43;;;;;;;-146.82;100.00;71671.09;5076627;28;20028;-82
2023/08/22 08:50:08;;;;;;;6.18;5.57;;;;;;;-146.82;100.00;71671.09;5075048;28;20040;-81
2023/08/22 08:52:47;;;;;;;6.00;4.65;;;;;;;-146.82;100.00;71671.09;5076190;28;20024;-80
2023/08/22 08:55:13;;;;;;;6.70;5.60;;;;;;;-146.82;100.00;71671.09;5074583;28;20040;-81
2023/08/22 08:57:39;;;;;;;6.65;5.53;;;;;;;-146.82;100.00;71671.09;5076591;28;20074;-79
2023/08/22 09:00:06;;;;;;;5.93;5.13;;;;;;;-146.82;100.00;71671.09;5075639;28;20553;-77
2023/08/22 09:02:33;;;;;;;6.97;5.70;;;;;;;-146.82;100.00;71671.09;5074666;28;20033;-77
2023/08/22 09:04:58;;;;;;;8.25;5.07;;;;;;;-146.82;100.00;71671.09;5075044;28;20369;-76
2023/08/22 09:07:26;;;;;;;10.20;5.35;;;;;;;-146.82;100.00;71671.09;5080305;28;20036;-76
2023/08/22 09:09:52;;;;;;;6.65;5.90;;;;;;;-146.82;100.00;71671.09;5075267;28;20032;-81
2023/08/22 09:12:20;;;;;;;9.05;5.45;;;;;;;-146.82;100.00;71671.09;5074579;28;20059;-79
2023/08/22 09:14:48;;;;;;;10.10;5.15;;;;;;;-146.82;100.00;71671.09;5075736;28;20111;-81
2023/08/22 09:17:20;;;;;;;6.68;5.97;;;;;;;-146.82;100.00;71671.09;5074525;28;20094;-78
2023/08/22 09:19:52;;;;;;;8.15;5.50;;;;;;;-146.82;100.00;71671.09;5072631;28;20036;-77
2023/08/22 09:22:18;;;;;;;6.43;5.30;;;;;;;-146.82;100.00;71671.09;5075707;28;20331;-77
2023/08/22 09:24:53;;;;;;;7.30;5.53;;;;;;;-146.82;100.00;71671.09;5075484;28;20029;-77
2023/08/22 09:27:26;;;;;;;8.60;5.18;;;;;;;-146.82;100.00;71671.09;5071551;28;20028;-79
2023/08/22 09:30:04;;;;;;;9.93;5.28;;;;;;;-146.82;100.00;71671.09;5072586;28;20029;-80
2023/08/22 09:32:31;;;;;;;7.22;6.53;;;;;;;-146.82;100.00;71671.09;5061401;28;20465;-77
2023/08/22 09:34:59;;;;;;;11.20;5.50;;;;;;;-146.82;100.00;71671.09;5073966;28;20116;-77
2023/08/22 09:37:34;;;;;;;12.75;6.40;;;;;;;-146.82;100.00;71671.09;5073192;28;20040;-76
2023/08/22 09:40:09;;;;;;;15.68;5.82;;;;;;;-146.82;100.00;71671.09;5056137;28;20025;-77
2023/08/22 09:42:40;;;;;;;7.80;5.93;;;;;;;-146.82;100.00;71671.09;5054384;28;20115;-77
2023/08/22 09:45:14;;;;;;;6.35;5.03;;;;;;;-146.82;100.00;71671.09;5055993;28;20028;-77
2023/08/22 09:47:46;;;;;;;7.15;5.75;;;;;;;-146.82;100.00;71671.09;5071419;28;20021;-77
2023/08/22 09:50:14;;;;;;;8.25;6.13;;;;;;;-146.82;100.00;71671.09;5071005;28;20040;-75
2023/08/22 09:52:40;;;;;;;8.43;6.20;;;;;;;-146.82;100.00;71671.09;5070890;28;20029;-77
2023/08/22 09:55:09;;;;;;;9.27;6.40;;;;;;;-146.82;100.00;71671.09;5054199;28;20149;-76
2023/08/22 09:57:36;;;;;;;9.15;6.00;;;;;;;-146.82;100.00;71671.09;5071560;28;20025;-79
2023/08/22 10:00:17;;;;;;;6.90;5.43;;;;;;;-146.82;100.00;71671.09;5071546;28;20028;-77
2023/08/22 10:02:44;;;;;;;8.88;5.43;;;;;;;-146.82;100.00;71671.09;5057688;28;20382;-79
2023/08/22 10:05:12;;;;;;;10.02;5.50;;;;;;;-146.82;100.00;71671.09;5059071;28;20048;-80
2023/08/22 10:07:39;;;;;;;8.30;5.70;;;;;;;-146.82;100.00;71671.09;5073833;28;20025;-78
2023/08/22 10:10:13;;;;;;;6.40;5.80;;;;;;;-146.82;100.00;71671.09;5056367;28;20046;-79
2023/08/22 10:12:50;;;;;;;5.88;5.38;;;;;;;-146.82;100.00;71671.09;5055680;28;20027;-77
2023/08/22 10:15:17;;;;;;;9.75;6.47;;;;;;;-146.82;100.00;71671.09;5056953;28;20033;-79
2023/08/22 10:17:43;;;;;;;9.35;5.80;;;;;;;-146.82;100.00;71671.09;5057146;28;20111;-78
2023/08/22 10:20:12;;;;;;;12.18;6.05;;;;;;;-146.82;100.00;71671.09;5058789;28;20064;-77
2023/08/22 10:22:38;;;;;;;9.27;5.95;;;;;;;-146.82;100.00;71671.09;5057699;28;20021;-78
2023/08/22 10:25:09;;;;;;;9.98;5.65;;;;;;;-146.82;100.00;71671.09;5057677;28;20080;-77
2023/08/22 10:27:46;;;;;;;7.03;5.82;;;;;;;-146.82;100.00;71671.09;5070170;28;20102;-77
2023/08/22 10:30:19;;;;;;;8.50;5.70;;;;;;;-146.82;100.00;71671.09;5070145;28;20036;-79
2023/08/22 10:33:07;;;;;;;7.88;5.80;;;;;;;-146.82;100.00;71671.09;5054520;28;20021;-82
2023/08/22 10:35:35;;;;;;;6.43;5.35;;;;;;;-146.82;100.00;71671.09;5070241;28;20041;-77
2023/08/22 10:38:02;;;;;;;8.80;5.72;;;;;;;-146.82;100.00;71671.09;5070774;28;20056;-78
2023/08/22 10:40:30;;;;;;;7.57;5.68;;;;;;;-146.82;100.00;71671.09;5054365;28;20047;-78
2023/08/22 10:43:17;;;;;;;10.57;5.80;;;;;;;-146.82;100.00;71671.09;5055084;28;20115;-77
2023/08/22 10:45:52;;;;;;;9.90;6.25;;;;;;;-146.82;100.00;71671.09;5054139;28;20033;-77
2023/08/22 10:48:25;;;;;;;9.57;5.65;;;;;;;-146.82;100.00;71671.09;5055085;28;20028;-77
2023/08/22 10:50:54;;;;;;;9.27;5.75;;;;;;;-146.82;100.00;71671.09;5055042;28;20567;-76
2023/08/22 10:53:26;;;;;;;9.70;5.40;;;;;;;-146.82;100.00;71671.09;5070921;28;20078;-76
2023/08/22 10:55:53;;;;;;;9.63;6.13;;;;;;;-146.82;100.00;71671.09;5060178;28;20025;-77
2023/08/22 10:58:42;;;;;;;8.40;5.85;;;;;;;-146.82;100.00;71671.09;5054812;28;20033;-77
2023/08/22 11:01:12;;;;;;;6.65;5.20;;;;;;;-146.82;100.00;71671.09;5054210;28;20494;-76
2023/08/22 11:03:39;;;;;;;6.53;5.22;;;;;;;-146.82;100.00;71671.09;5069212;28;20056;-77
2023/08/22 11:06:18;;;;;;;9.50;5.68;;;;;;;-146.82;100.00;71671.09;5069274;28;20064;-76
2023/08/22 11:08:58;;;;;;;6.88;5.28;;;;;;;-146.82;100.00;71671.09;5052915;28;20032;-77